createdAt,value
2018-04-09T00:02:16.343Z,84.70
2018-04-09T00:04:44.629Z,84.40
2018-04-09T00:07:12.886Z,84.40
2018-04-09T00:09:40.392Z,84.40
2018-04-09T00:12:08.650Z,85.20
2018-04-09T00:14:36.168Z,85.10
2018-04-09T00:17:03.660Z,85.20
2018-04-09T00:19:31.172Z,85.60
2018-04-09T00:21:58.670Z,85.40
2018-04-09T00:24:26.185Z,85.60
2018-04-09T00:26:53.672Z,85.40
2018-04-09T00:29:21.180Z,86.20
2018-04-09T00:31:48.664Z,86.80
2018-04-09T00:34:16.179Z,87.10
2018-04-09T00:36:43.667Z,87.20
2018-04-09T00:39:11.156Z,87.00
2018-04-09T00:41:39.428Z,87.60
2018-04-09T00:44:06.912Z,87.60
2018-04-09T00:46:35.193Z,89.70
2018-04-09T00:49:02.681Z,89.70
2018-04-09T00:51:30.193Z,90.10
2018-04-09T00:54:00.582Z,90.40
2018-04-09T00:56:28.856Z,90.80
2018-04-09T00:58:56.344Z,90.80
2018-04-09T01:01:24.624Z,91.30
2018-04-09T01:03:52.892Z,91.60
2018-04-09T01:06:20.413Z,91.60
2018-04-09T01:08:47.909Z,91.70
2018-04-09T01:11:15.428Z,91.90
2018-04-09T01:13:43.680Z,92.50
2018-04-09T01:16:11.184Z,92.40
2018-04-09T01:18:39.441Z,93.20
2018-04-09T01:21:06.943Z,92.80
2018-04-09T01:23:35.191Z,93.30
2018-04-09T01:26:02.712Z,93.20
2018-04-09T01:28:30.218Z,93.50
2018-04-09T01:30:57.726Z,93.20
2018-04-09T01:33:25.216Z,93.20
2018-04-09T01:35:53.494Z,92.60
2018-04-09T01:38:21.747Z,92.50
2018-04-09T01:40:49.264Z,92.40
2018-04-09T01:43:16.764Z,92.40
2018-04-09T01:45:44.261Z,92.30
2018-04-09T01:48:11.767Z,92.10
2018-04-09T01:50:40.016Z,92.00
2018-04-09T01:53:07.528Z,92.00
2018-04-09T01:55:35.774Z,92.30
2018-04-09T01:58:03.276Z,92.30
2018-04-09T02:00:31.536Z,92.40
2018-04-09T02:02:59.050Z,92.60
2018-04-09T02:05:27.311Z,92.70
2018-04-09T02:07:54.829Z,92.70
2018-04-09T02:10:22.325Z,93.00
2018-04-09T02:12:49.842Z,93.20
2018-04-09T02:15:18.100Z,93.40
2018-04-09T02:17:45.608Z,93.30
2018-04-09T02:20:13.858Z,93.50
2018-04-09T02:22:41.369Z,93.50
2018-04-09T02:25:09.625Z,93.80
2018-04-09T02:27:37.141Z,93.80
2018-04-09T02:30:04.638Z,93.70
2018-04-09T02:32:32.177Z,93.80
2018-04-09T02:34:59.665Z,94.00
2018-04-09T02:37:27.174Z,94.40
2018-04-09T02:39:54.673Z,94.60
2018-04-09T02:42:22.930Z,94.50
2018-04-09T02:44:50.457Z,94.50
2018-04-09T02:47:17.958Z,94.70
2018-04-09T02:49:45.492Z,94.90
2018-04-09T02:52:12.981Z,95.40
2018-04-09T02:54:40.497Z,95.90
2018-04-09T02:57:07.992Z,96.00
2018-04-09T02:59:36.263Z,96.90
2018-04-09T03:02:04.539Z,97.30
2018-04-09T03:04:32.079Z,97.30
2018-04-09T03:06:59.571Z,97.50
2018-04-09T03:09:27.091Z,97.60
2018-04-09T03:11:54.585Z,97.90
2018-04-09T03:14:22.102Z,98.20
2018-04-09T03:16:50.361Z,98.70
2018-04-09T03:19:17.883Z,98.70
2018-04-09T03:21:46.140Z,99.20
2018-04-09T03:24:13.665Z,99.10
2018-04-09T03:26:41.164Z,99.10
2018-04-09T03:29:08.681Z,98.20
2018-04-09T03:31:36.948Z,98.00
2018-04-09T03:34:04.456Z,98.00
2018-04-09T03:36:31.970Z,98.10
2018-04-09T03:38:59.493Z,98.40
2018-04-09T03:41:26.992Z,98.40
2018-04-09T03:43:54.513Z,98.50
2018-04-09T03:46:22.771Z,98.70
2018-04-09T03:48:50.300Z,98.70
2018-04-09T03:51:17.788Z,99.00
2018-04-09T03:53:45.296Z,99.40
2018-04-09T03:56:12.788Z,99.90
2018-04-09T03:58:40.300Z,99.90
2018-04-09T04:01:07.784Z,99.90
2018-04-09T04:03:40.088Z,99.90
2018-04-09T04:06:07.580Z,99.90
2018-04-09T04:08:35.850Z,99.90
2018-04-09T04:11:03.361Z,99.90
2018-04-09T04:13:30.864Z,99.90
2018-04-09T04:19:17.956Z,99.90
2018-04-09T04:21:46.128Z,99.90
2018-04-09T04:24:13.615Z,99.90
2018-04-09T04:26:41.133Z,99.90
2018-04-09T04:29:09.393Z,99.90
2018-04-09T04:31:37.674Z,99.90
2018-04-09T04:34:05.927Z,99.90
2018-04-09T04:36:33.446Z,99.90
2018-04-09T04:39:00.932Z,99.90
2018-04-09T04:41:28.447Z,99.90
2018-04-09T04:43:56.353Z,99.90
2018-04-09T04:46:24.632Z,99.90
2018-04-09T04:48:52.951Z,99.90
2018-04-09T04:51:20.460Z,99.90
2018-04-09T04:53:47.952Z,99.90
2018-04-09T04:56:16.244Z,99.90
2018-04-09T04:58:43.740Z,99.90
2018-04-09T05:01:12.019Z,99.90
2018-04-09T05:03:39.537Z,99.90
2018-04-09T05:06:07.052Z,99.90
2018-04-09T05:08:34.540Z,99.90
2018-04-09T05:11:02.053Z,99.90
2018-04-09T05:13:29.548Z,99.90
2018-04-09T05:15:57.134Z,99.90
2018-04-09T05:18:24.605Z,99.90
2018-04-09T05:20:52.884Z,99.90
2018-04-09T05:23:20.375Z,99.90
2018-04-09T05:25:47.892Z,99.90
2018-04-09T05:28:15.384Z,99.90
2018-04-09T05:30:42.896Z,99.90
2018-04-09T05:33:10.384Z,99.90
2018-04-09T05:35:37.900Z,99.90
2018-04-09T05:38:05.387Z,99.90
2018-04-09T05:40:33.643Z,99.90
2018-04-09T05:43:01.149Z,99.90
2018-04-09T05:45:29.401Z,99.90
2018-04-09T05:47:56.915Z,99.90
2018-04-09T05:50:24.408Z,99.90
2018-04-09T05:52:51.915Z,99.90
2018-04-09T05:55:19.405Z,99.90
2018-04-09T05:57:46.916Z,99.90
2018-04-09T06:00:14.400Z,99.90
2018-04-09T06:02:41.908Z,99.90
2018-04-09T06:05:09.407Z,99.90
2018-04-09T06:07:36.924Z,99.90
2018-04-09T06:10:04.418Z,99.90
2018-04-09T06:12:31.926Z,99.90
2018-04-09T06:14:59.415Z,99.90
2018-04-09T06:17:26.932Z,99.90
2018-04-09T06:19:54.421Z,99.90
2018-04-09T06:22:22.696Z,99.90
2018-04-09T06:24:50.948Z,99.90
2018-04-09T06:27:18.463Z,99.90
2018-04-09T06:29:46.723Z,99.90
2018-04-09T06:32:14.237Z,99.90
2018-04-09T06:34:41.724Z,99.90
2018-04-09T06:37:10.000Z,99.90
2018-04-09T06:39:37.484Z,99.90
2018-04-09T06:42:05.000Z,99.90
2018-04-09T06:44:32.483Z,99.90
2018-04-09T06:47:00.765Z,99.90
2018-04-09T06:49:28.252Z,99.90
2018-04-09T06:51:56.530Z,99.90
2018-04-09T06:54:24.789Z,99.90
2018-04-09T06:56:52.289Z,99.90
2018-04-09T06:59:20.565Z,99.90
2018-04-09T07:01:48.048Z,99.90
2018-04-09T07:04:16.323Z,99.90
2018-04-09T07:06:43.813Z,99.90
2018-04-09T07:09:12.087Z,99.90
2018-04-09T07:11:39.575Z,99.90
2018-04-09T07:14:07.847Z,99.90
2018-04-09T07:16:35.337Z,99.90
2018-04-09T07:19:02.855Z,99.90
2018-04-09T07:21:30.354Z,99.90
2018-04-09T07:23:57.860Z,99.90
2018-04-09T07:26:25.348Z,99.90
2018-04-09T07:28:52.873Z,99.90
2018-04-09T07:31:21.124Z,99.90
2018-04-09T07:33:48.632Z,99.90
2018-04-09T07:36:16.886Z,99.90
2018-04-09T07:38:44.397Z,99.90
2018-04-09T07:41:12.652Z,99.90
2018-04-09T07:43:40.156Z,99.90
2018-04-09T07:46:08.408Z,99.90
2018-04-09T07:48:35.916Z,99.90
2018-04-09T07:51:04.168Z,99.90
2018-04-09T07:53:31.676Z,99.90
2018-04-09T07:55:59.932Z,99.90
2018-04-09T07:58:27.417Z,99.90
2018-04-09T08:00:54.929Z,99.90
2018-04-09T08:03:22.421Z,99.90
2018-04-09T08:05:49.933Z,99.90
2018-04-09T08:08:18.190Z,99.90
2018-04-09T08:10:45.700Z,99.90
2018-04-09T08:13:13.954Z,99.90
2018-04-09T08:15:41.464Z,99.90
2018-04-09T08:18:09.720Z,99.20
2018-04-09T08:20:37.231Z,99.10
2018-04-09T08:23:04.716Z,98.50
2018-04-09T08:25:32.237Z,98.20
2018-04-09T08:27:59.723Z,97.70
2018-04-09T08:30:28.005Z,97.10
2018-04-09T08:32:56.265Z,97.10
2018-04-09T08:35:23.778Z,97.10
2018-04-09T08:37:52.027Z,97.30
2018-04-09T08:40:19.535Z,97.30
2018-04-09T08:42:47.793Z,97.20
2018-04-09T08:45:15.309Z,96.90
2018-04-09T08:47:42.797Z,97.00
2018-04-09T08:50:10.300Z,96.80
2018-04-09T08:52:37.788Z,96.30
2018-04-09T08:55:05.296Z,96.20
2018-04-09T08:57:32.775Z,96.20
2018-04-09T09:00:00.287Z,96.10
2018-04-09T09:02:27.772Z,96.10
2018-04-09T09:04:55.276Z,95.70
2018-04-09T09:07:22.764Z,95.70
2018-04-09T09:09:50.280Z,95.40
2018-04-09T09:12:17.769Z,95.90
2018-04-09T09:14:45.271Z,95.80
2018-04-09T09:17:12.784Z,94.80
2018-04-09T09:19:40.272Z,94.90
2018-04-09T09:22:08.532Z,95.00
2018-04-09T09:24:36.024Z,95.00
2018-04-09T09:27:04.304Z,94.30
2018-04-09T09:29:31.799Z,94.30
2018-04-09T09:31:59.308Z,94.30
2018-04-09T09:34:26.783Z,94.60
2018-04-09T09:36:54.293Z,94.10
2018-04-09T09:39:22.547Z,94.10
2018-04-09T09:41:50.060Z,94.10
2018-04-09T09:44:18.738Z,94.40
2018-04-09T09:46:46.242Z,94.30
2018-04-09T09:49:13.736Z,94.00
2018-04-09T09:51:41.244Z,94.10
2018-04-09T09:54:08.732Z,93.90
2018-04-09T09:56:37.012Z,93.30
2018-04-09T09:59:05.268Z,93.10
2018-04-09T10:01:38.412Z,93.10
2018-04-09T10:04:05.881Z,93.20
2018-04-09T10:06:34.159Z,92.20
2018-04-09T10:09:01.650Z,92.20
2018-04-09T10:11:29.899Z,91.70
2018-04-09T10:13:57.400Z,91.70
2018-04-09T10:16:25.663Z,92.10
2018-04-09T10:18:53.174Z,92.00
2018-04-09T10:21:20.661Z,91.30
2018-04-09T10:23:48.173Z,91.00
2018-04-09T10:26:15.657Z,90.90
2018-04-09T10:28:43.164Z,90.70
2018-04-09T10:31:10.652Z,90.70
2018-04-09T10:33:38.172Z,90.60
2018-04-09T10:36:06.428Z,90.30
2018-04-09T10:38:33.936Z,90.30
2018-04-09T10:41:02.188Z,90.20
2018-04-09T10:43:29.697Z,90.10
2018-04-09T10:45:57.968Z,89.90
2018-04-09T10:48:25.469Z,90.20
2018-04-09T10:50:52.951Z,87.80
2018-04-09T10:53:20.456Z,88.20
2018-04-09T10:55:47.936Z,88.40
2018-04-09T10:58:15.451Z,88.20
2018-04-09T11:00:42.932Z,87.30
2018-04-09T11:03:11.199Z,85.70
2018-04-09T11:05:39.447Z,84.80
2018-04-09T11:08:06.953Z,84.80
2018-04-09T11:10:35.204Z,84.90
2018-04-09T11:13:02.707Z,84.80
2018-04-09T11:15:30.960Z,84.60
2018-04-09T11:17:58.450Z,84.50
2018-04-09T11:20:25.955Z,84.40
2018-04-09T11:22:53.451Z,83.60
2018-04-09T11:25:21.025Z,83.20
2018-04-09T11:27:49.236Z,83.60
2018-04-09T11:30:16.747Z,83.60
2018-04-09T11:32:44.236Z,83.30
2018-04-09T11:35:11.748Z,82.90
2018-04-09T11:37:39.232Z,82.30
2018-04-09T11:40:06.739Z,81.60
2018-04-09T11:42:34.223Z,81.90
2018-04-09T11:45:01.722Z,81.40
2018-04-09T11:47:29.203Z,81.50
2018-04-09T11:49:56.725Z,82.00
2018-04-09T11:52:24.211Z,82.60
2018-04-09T11:54:51.714Z,82.60
2018-04-09T11:57:19.197Z,81.80
2018-04-09T11:59:46.710Z,81.60
2018-04-09T12:02:14.207Z,81.10
2018-04-09T12:04:41.710Z,80.40
2018-04-09T12:07:09.194Z,80.90
2018-04-09T12:09:37.463Z,80.60
2018-04-09T12:12:04.952Z,80.40
2018-04-09T12:14:33.209Z,80.10
2018-04-09T12:17:00.715Z,80.10
2018-04-09T12:19:28.216Z,79.70
2018-04-09T12:21:55.722Z,79.10
2018-04-09T12:24:23.202Z,79.30
2018-04-09T12:26:50.711Z,79.10
2018-04-09T12:29:18.190Z,78.90
2018-04-09T12:31:45.708Z,78.60
2018-04-09T12:34:13.251Z,76.60
2018-04-09T12:36:40.714Z,77.40
2018-04-09T12:39:08.222Z,76.80
2018-04-09T12:41:35.730Z,75.30
2018-04-09T12:44:03.211Z,75.80
2018-04-09T12:46:30.718Z,75.30
2018-04-09T12:48:58.207Z,74.60
2018-04-09T12:51:25.714Z,74.80
2018-04-09T12:53:53.198Z,75.90
2018-04-09T12:56:20.699Z,75.90
2018-04-09T12:58:48.177Z,75.70
2018-04-09T13:01:15.679Z,76.10
2018-04-09T13:03:43.162Z,76.30
2018-04-09T13:06:10.654Z,74.00
2018-04-09T13:08:38.153Z,74.30
2018-04-09T13:11:05.640Z,73.60
2018-04-09T13:13:33.926Z,75.20
2018-04-09T13:16:01.415Z,75.10
2018-04-09T13:18:29.682Z,72.30
2018-04-09T13:20:57.180Z,72.20
2018-04-09T13:23:24.697Z,71.70
2018-04-09T13:25:52.182Z,71.90
2018-04-09T13:28:19.690Z,70.30
2018-04-09T13:30:47.170Z,69.50
2018-04-09T13:33:14.666Z,70.90
2018-04-09T13:35:42.175Z,70.50
2018-04-09T13:38:09.665Z,70.70
2018-04-09T13:40:37.153Z,71.90
2018-04-09T13:43:04.665Z,71.60
2018-04-09T13:45:32.153Z,71.60
2018-04-09T13:47:59.664Z,71.70
2018-04-09T13:50:27.149Z,72.30
2018-04-09T13:52:54.662Z,72.10
2018-04-09T13:55:22.142Z,72.30
2018-04-09T13:57:49.646Z,72.90
2018-04-09T14:00:17.129Z,73.20
2018-04-09T14:02:44.630Z,72.40
2018-04-09T14:05:12.137Z,72.90
2018-04-09T14:07:39.622Z,73.20
2018-04-09T14:10:07.130Z,73.50
2018-04-09T14:12:34.614Z,72.50
2018-04-09T14:15:02.120Z,73.20
2018-04-09T14:17:29.607Z,73.20
2018-04-09T14:19:57.118Z,73.50
2018-04-09T14:22:24.613Z,74.10
2018-04-09T14:24:52.881Z,73.80
2018-04-09T14:27:20.378Z,73.70
2018-04-09T14:29:48.653Z,74.10
2018-04-09T14:32:16.906Z,74.60
2018-04-09T14:34:44.411Z,74.50
2018-04-09T14:37:12.666Z,74.30
2018-04-09T14:39:40.178Z,74.20
2018-04-09T14:42:08.439Z,74.70
2018-04-09T14:44:35.952Z,74.60
2018-04-09T14:47:03.450Z,74.20
2018-04-09T14:49:30.953Z,75.20
2018-04-09T14:51:58.435Z,74.80
2018-04-09T14:54:25.946Z,75.30
2018-04-09T14:56:53.443Z,74.80
2018-04-09T14:59:20.953Z,75.80
2018-04-09T15:01:49.212Z,75.70
2018-04-09T15:04:16.729Z,75.60
2018-04-09T15:06:44.226Z,75.30
2018-04-09T15:09:11.749Z,75.30
2018-04-09T15:11:39.235Z,75.10
2018-04-09T15:14:07.490Z,74.20
2018-04-09T15:16:35.008Z,74.10
2018-04-09T15:19:02.491Z,74.90
2018-04-09T15:21:30.001Z,74.10
2018-04-09T15:23:57.493Z,75.00
2018-04-09T15:26:25.765Z,75.20
2018-04-09T15:28:53.249Z,75.20
2018-04-09T15:31:21.557Z,75.60
2018-04-09T15:33:49.799Z,75.40
2018-04-09T15:36:17.312Z,75.40
2018-04-09T15:38:44.794Z,74.60
2018-04-09T15:41:12.303Z,74.80
2018-04-09T15:43:39.792Z,75.20
2018-04-09T15:46:07.301Z,76.10
2018-04-09T15:48:34.798Z,75.20
2018-04-09T15:51:02.311Z,74.20
2018-04-09T15:53:29.793Z,76.30
2018-04-09T15:55:58.074Z,83.30
2018-04-09T15:58:26.329Z,84.30
2018-04-09T16:00:53.842Z,84.20
2018-04-09T16:03:22.098Z,85.10
2018-04-09T16:05:49.614Z,85.00
2018-04-09T16:08:17.111Z,85.20
2018-04-09T16:10:44.625Z,85.50
2018-04-09T16:13:12.116Z,85.40
2018-04-09T16:15:39.636Z,86.80
2018-04-09T16:18:07.134Z,86.20
2018-04-09T16:20:34.650Z,85.40
2018-04-09T16:23:02.142Z,85.30
2018-04-09T16:25:29.632Z,85.40
2018-04-09T16:27:57.146Z,85.70
2018-04-09T16:30:24.638Z,85.90
2018-04-09T16:32:52.150Z,86.40
2018-04-09T16:35:19.646Z,86.60
2018-04-09T16:37:47.929Z,87.80
2018-04-09T16:40:16.197Z,87.60
2018-04-09T16:42:43.712Z,87.40
2018-04-09T16:45:11.214Z,87.70
2018-04-09T16:47:38.739Z,88.10
2018-04-09T16:50:06.237Z,88.60
2018-04-09T16:52:33.752Z,88.70
2018-04-09T16:55:01.246Z,88.70
2018-04-09T16:57:28.758Z,89.00
2018-04-09T16:59:56.255Z,89.60
2018-04-09T17:02:23.778Z,89.90
2018-04-09T17:04:51.267Z,90.00
2018-04-09T17:07:18.775Z,90.30
2018-04-09T17:09:46.278Z,90.40
2018-04-09T17:12:13.799Z,90.70
2018-04-09T17:14:41.287Z,90.80
2018-04-09T17:17:08.774Z,90.00
2018-04-09T17:19:37.058Z,89.80
2018-04-09T17:22:05.315Z,88.70
2018-04-09T17:24:32.826Z,88.70
2018-04-09T17:27:01.083Z,88.10
2018-04-09T17:29:28.599Z,88.00
2018-04-09T17:31:56.097Z,88.10
2018-04-09T17:34:23.614Z,88.20
2018-04-09T17:36:51.879Z,88.40
2018-04-09T17:39:19.394Z,88.20
2018-04-09T17:41:46.887Z,88.50
2018-04-09T17:44:14.402Z,88.50
2018-04-09T17:46:41.910Z,87.90
2018-04-09T17:49:09.431Z,88.80
2018-04-09T17:51:36.925Z,88.10
2018-04-09T17:54:05.204Z,88.40
2018-04-09T17:56:33.470Z,88.70
2018-04-09T17:59:00.977Z,88.70
2018-04-09T18:01:29.238Z,89.30
2018-04-09T18:03:56.746Z,89.20
2018-04-09T18:06:24.234Z,89.50
2018-04-09T18:08:51.746Z,89.80
2018-04-09T18:11:19.235Z,90.00
2018-04-09T18:13:47.519Z,90.10
2018-04-09T18:16:15.014Z,90.00
2018-04-09T18:18:42.523Z,90.20
2018-04-09T18:21:10.043Z,90.30
2018-04-09T18:23:38.314Z,90.50
2018-04-09T18:26:06.598Z,90.70
2018-04-09T18:28:34.107Z,90.60
2018-04-09T18:31:01.621Z,90.80
2018-04-09T18:33:29.123Z,90.90
2018-04-09T18:35:57.403Z,91.10
2018-04-09T18:38:24.895Z,91.00
2018-04-09T18:40:53.169Z,91.40
2018-04-09T18:43:21.440Z,91.60
2018-04-09T18:45:48.958Z,91.50
2018-04-09T18:48:16.502Z,91.70
2018-04-09T18:50:43.996Z,91.50
2018-04-09T18:53:11.487Z,92.00
2018-04-09T18:55:38.994Z,91.70
2018-04-09T18:58:06.494Z,91.60
2018-04-09T19:00:34.787Z,91.70
2018-04-09T19:03:02.308Z,91.70
2018-04-09T19:05:29.822Z,92.00
2018-04-09T19:07:57.314Z,91.90
2018-04-09T19:10:24.827Z,92.30
2018-04-09T19:12:52.331Z,92.40
2018-04-09T19:15:20.625Z,92.00
2018-04-09T19:17:48.886Z,92.20
2018-04-09T19:20:16.430Z,92.10
2018-04-09T19:22:43.942Z,92.10
2018-04-09T19:25:12.238Z,92.50
2018-04-09T19:27:39.774Z,92.50
2018-04-09T19:30:07.320Z,92.70
2018-04-09T19:32:34.847Z,92.40
2018-04-09T19:35:08.106Z,92.40
2018-04-09T19:37:41.390Z,92.40
2018-04-09T19:40:14.464Z,92.30
2018-04-09T19:42:42.750Z,92.60
2018-04-09T19:45:11.011Z,92.70
2018-04-09T19:47:38.586Z,92.70
2018-04-09T19:50:06.095Z,93.00
2018-04-09T19:52:33.612Z,92.90
2018-04-09T19:55:01.105Z,93.10
2018-04-09T19:57:28.617Z,93.20
2018-04-09T19:59:56.107Z,93.50
2018-04-09T20:02:23.621Z,93.40
2018-04-09T20:04:51.110Z,93.30
2018-04-09T20:07:18.623Z,93.40
2018-04-09T20:09:46.126Z,93.30
2018-04-09T20:12:13.678Z,93.30
2018-04-09T20:14:41.170Z,93.30
2018-04-09T20:17:08.743Z,93.40
2018-04-09T20:19:37.034Z,93.80
2018-04-09T20:22:04.578Z,93.80
2018-04-09T20:24:32.085Z,93.90
2018-04-09T20:26:59.599Z,93.90
2018-04-09T20:29:27.136Z,94.10
2018-04-09T20:31:55.414Z,94.00
2018-04-09T20:34:23.675Z,94.30
2018-04-09T20:36:51.217Z,94.30
2018-04-09T20:39:18.717Z,94.30
2018-04-09T20:41:46.211Z,94.40
2018-04-09T20:44:14.492Z,94.60
2018-04-09T20:46:42.008Z,94.50
2018-04-09T20:49:09.551Z,94.50
2018-04-09T20:51:37.823Z,94.80
2018-04-09T20:54:05.331Z,94.70
2018-04-09T20:56:32.829Z,94.70
2018-04-09T20:59:00.354Z,94.80
2018-04-09T21:01:28.606Z,95.10
2018-04-09T21:03:56.118Z,95.10
2018-04-09T21:06:23.615Z,95.30
2018-04-09T21:08:51.123Z,95.50
2018-04-09T21:11:18.616Z,95.70
2018-04-09T21:13:46.895Z,95.90
2018-04-09T21:16:15.146Z,96.50
2018-04-09T21:18:42.654Z,96.10
2018-04-09T21:21:11.358Z,96.60
2018-04-09T21:23:39.632Z,96.50
2018-04-09T21:26:07.115Z,96.50
2018-04-09T21:28:35.394Z,97.00
2018-04-09T21:31:02.885Z,97.00
2018-04-09T21:33:31.158Z,97.30
2018-04-09T21:35:58.642Z,97.30
2018-04-09T21:38:26.914Z,97.70
2018-04-09T21:40:54.411Z,97.70
2018-04-09T21:43:21.925Z,97.90
2018-04-09T21:45:49.417Z,98.10
2018-04-09T21:48:16.930Z,98.50
2018-04-09T21:50:44.430Z,98.80
2018-04-09T21:53:11.968Z,99.20
2018-04-09T21:55:39.458Z,99.50
2018-04-09T21:58:06.945Z,99.90
2018-04-09T22:00:34.454Z,99.90
2018-04-09T22:03:02.714Z,99.90
2018-04-09T22:05:30.227Z,99.90
2018-04-09T22:07:57.724Z,99.90
2018-04-09T22:10:25.238Z,99.90
2018-04-09T22:12:52.815Z,99.90
2018-04-09T22:15:20.323Z,99.90
2018-04-09T22:17:47.811Z,99.90
2018-04-09T22:20:15.326Z,99.90
2018-04-09T22:22:43.599Z,99.90
2018-04-09T22:25:11.112Z,99.90
2018-04-09T22:27:38.606Z,99.90
2018-04-09T22:30:06.114Z,99.90
2018-04-09T22:32:33.603Z,99.90
2018-04-09T22:35:01.882Z,99.90
2018-04-09T22:37:29.369Z,99.90
2018-04-09T22:39:57.650Z,99.90
2018-04-09T22:42:25.906Z,99.90
2018-04-09T22:44:53.423Z,99.90
2018-04-09T22:47:20.922Z,99.90
2018-04-09T22:49:48.430Z,99.90
2018-04-09T22:52:15.925Z,99.90
2018-04-09T22:54:44.207Z,99.90
2018-04-09T22:57:12.460Z,99.90
2018-04-09T22:59:40.170Z,99.90
2018-04-09T23:02:08.425Z,99.90
2018-04-09T23:04:35.915Z,99.90
2018-04-09T23:07:03.428Z,99.90
2018-04-09T23:09:30.922Z,99.90
2018-04-09T23:11:58.430Z,99.90
2018-04-09T23:14:25.924Z,99.90
2018-04-09T23:16:53.435Z,99.90
2018-04-09T23:19:20.923Z,99.90
2018-04-09T23:21:48.434Z,99.90
2018-04-09T23:24:15.926Z,99.90
2018-04-09T23:26:43.439Z,99.90
2018-04-09T23:29:11.713Z,99.90
2018-04-09T23:31:39.230Z,99.90
2018-04-09T23:34:07.487Z,99.90
2018-04-09T23:36:35.002Z,99.90
2018-04-09T23:39:02.494Z,99.90
2018-04-09T23:41:30.006Z,99.90
2018-04-09T23:43:57.499Z,99.90
2018-04-09T23:46:25.772Z,99.90
2018-04-09T23:48:54.034Z,99.90
2018-04-09T23:51:21.567Z,99.90
2018-04-09T23:53:49.054Z,99.90
2018-04-09T23:56:16.552Z,99.90
2018-04-09T23:58:44.071Z,99.90
